createdAt,value
2019-01-11T00:00:57.578Z,4.80
2019-01-11T00:03:26.836Z,5.93
2019-01-11T00:05:56.344Z,5.37
2019-01-11T00:08:25.609Z,5.33
2019-01-11T00:10:54.876Z,5.03
2019-01-11T00:13:24.140Z,4.30
2019-01-11T00:15:53.416Z,5.97
2019-01-11T00:18:24.216Z,6.30
2019-01-11T00:20:53.493Z,5.50
2019-01-11T00:23:22.765Z,5.20
2019-01-11T00:25:52.037Z,3.20
2019-01-11T00:28:21.294Z,3.43
2019-01-11T00:30:50.565Z,3.47
2019-01-11T00:33:19.830Z,3.83
2019-01-11T00:35:49.116Z,4.47
2019-01-11T00:38:18.457Z,4.27
2019-01-11T00:40:47.729Z,3.93
2019-01-11T00:43:17.240Z,3.67
2019-01-11T00:45:46.596Z,3.53
2019-01-11T00:48:15.872Z,3.33
2019-01-11T00:50:45.366Z,3.50
2019-01-11T00:53:14.648Z,2.30
2019-01-11T00:55:43.907Z,2.90
2019-01-11T00:58:13.171Z,2.93
2019-01-11T01:00:42.443Z,2.63
2019-01-11T01:03:11.716Z,3.10
2019-01-11T01:05:41.044Z,3.57
2019-01-11T01:08:10.564Z,3.57
2019-01-11T01:10:40.807Z,2.93
2019-01-11T01:13:10.133Z,3.10
2019-01-11T01:15:39.395Z,2.83
2019-01-11T01:18:08.660Z,2.90
2019-01-11T01:20:38.396Z,3.10
2019-01-11T01:23:07.721Z,3.13
2019-01-11T01:25:37.004Z,3.50
2019-01-11T01:28:06.601Z,4.13
2019-01-11T01:30:36.627Z,4.03
2019-01-11T01:33:05.923Z,4.27
2019-01-11T01:35:37.054Z,4.80
2019-01-11T01:38:06.392Z,5.00
2019-01-11T01:40:35.666Z,5.10
2019-01-11T01:43:05.265Z,4.67
2019-01-11T01:45:34.528Z,5.30
2019-01-11T01:48:03.980Z,5.17
2019-01-11T01:50:33.319Z,5.10
2019-01-11T01:53:02.585Z,5.40
2019-01-11T01:55:32.809Z,5.67
2019-01-11T01:58:02.346Z,5.30
2019-01-11T02:00:31.789Z,5.33
2019-01-11T02:03:01.056Z,5.37
2019-01-11T02:05:30.317Z,5.33
2019-01-11T02:07:59.613Z,5.67
2019-01-11T02:10:28.891Z,5.60
2019-01-11T02:12:58.166Z,4.73
2019-01-11T02:15:27.433Z,4.37
2019-01-11T02:17:56.705Z,3.23
2019-01-11T02:20:26.076Z,3.87
2019-01-11T02:22:55.349Z,4.03
2019-01-11T02:25:24.797Z,5.60
2019-01-11T02:27:54.089Z,6.00
2019-01-11T02:30:23.535Z,4.80
2019-01-11T02:32:53.840Z,5.17
2019-01-11T02:35:23.870Z,5.73
2019-01-11T02:37:53.272Z,5.70
2019-01-11T02:40:22.544Z,5.70
2019-01-11T02:42:51.827Z,5.20
2019-01-11T02:45:21.224Z,6.00
2019-01-11T02:47:50.505Z,6.67
2019-01-11T02:50:19.834Z,6.07
2019-01-11T02:52:49.386Z,6.53
2019-01-11T02:55:18.658Z,7.07
2019-01-11T02:57:48.174Z,5.97
2019-01-11T03:00:19.659Z,6.60
2019-01-11T03:02:49.221Z,6.33
2019-01-11T03:05:18.567Z,7.33
2019-01-11T03:07:48.377Z,6.37
2019-01-11T03:10:21.444Z,6.70
2019-01-11T03:12:50.704Z,6.47
2019-01-11T03:15:20.362Z,6.23
2019-01-11T03:17:49.866Z,7.53
2019-01-11T03:20:19.746Z,6.70
2019-01-11T03:22:49.086Z,7.13
2019-01-11T03:25:18.434Z,6.77
2019-01-11T03:27:48.767Z,7.00
2019-01-11T03:30:20.112Z,6.97
2019-01-11T03:32:49.435Z,6.30
2019-01-11T03:35:19.185Z,5.90
2019-01-11T03:37:49.293Z,6.63
2019-01-11T03:40:21.449Z,6.57
2019-01-11T03:42:50.897Z,7.37
2019-01-11T03:45:21.423Z,7.43
2019-01-11T03:47:50.696Z,6.37
2019-01-11T03:50:20.813Z,6.43
2019-01-11T03:52:50.076Z,6.50
2019-01-11T03:55:19.419Z,6.47
2019-01-11T03:57:48.836Z,7.07
2019-01-11T04:00:21.349Z,7.23
2019-01-11T04:02:50.682Z,7.10
2019-01-11T04:05:20.040Z,7.87
2019-01-11T04:07:49.841Z,12.60
2019-01-11T04:10:20.965Z,17.40
2019-01-11T04:12:50.234Z,40.57
2019-01-11T04:15:20.648Z,29.00
2019-01-11T04:18:09.154Z,52.07
2019-01-11T04:20:38.506Z,17.13
2019-01-11T04:23:07.775Z,7.73
2019-01-11T04:25:38.325Z,6.27
2019-01-11T04:28:07.582Z,5.93
2019-01-11T04:30:36.853Z,7.00
2019-01-11T04:33:06.128Z,7.13
2019-01-11T04:35:35.549Z,8.33
2019-01-11T04:38:04.881Z,10.47
2019-01-11T04:40:34.563Z,131.60
2019-01-11T04:43:04.096Z,93.23
2019-01-11T04:45:33.443Z,39.83
2019-01-11T04:48:02.735Z,12.23
2019-01-11T04:50:32.079Z,8.40
2019-01-11T04:53:01.453Z,8.90
2019-01-11T04:55:30.923Z,8.30
2019-01-11T04:58:00.206Z,8.63
2019-01-11T05:00:29.474Z,7.43
2019-01-11T05:02:58.762Z,7.77
2019-01-11T05:05:28.034Z,8.10
2019-01-11T05:07:57.317Z,7.97
2019-01-11T05:10:26.586Z,7.87
2019-01-11T05:12:57.234Z,8.10
2019-01-11T05:15:26.506Z,7.33
2019-01-11T05:17:55.872Z,7.90
2019-01-11T05:20:25.205Z,7.87
2019-01-11T05:22:54.530Z,7.87
2019-01-11T05:25:23.863Z,8.27
2019-01-11T05:27:53.207Z,8.10
2019-01-11T05:30:22.542Z,51.67
2019-01-11T05:32:51.893Z,33.00
2019-01-11T05:35:21.170Z,19.33
2019-01-11T05:37:50.450Z,10.63
2019-01-11T05:40:19.789Z,8.50
2019-01-11T05:42:49.139Z,172.83
2019-01-11T05:45:18.473Z,64.53
2019-01-11T05:47:47.763Z,27.17
2019-01-11T05:50:23.899Z,13.03
2019-01-11T05:52:48.764Z,11.47
2019-01-11T05:55:19.667Z,9.60
2019-01-11T05:57:50.586Z,29.20
2019-01-11T06:00:19.865Z,26.77
2019-01-11T06:02:49.142Z,20.63
2019-01-11T06:05:18.418Z,12.63
2019-01-11T06:07:47.766Z,12.33
2019-01-11T06:10:17.029Z,9.30
2019-01-11T06:12:46.301Z,9.23
2019-01-11T06:15:15.595Z,8.77
2019-01-11T06:17:44.927Z,8.50
2019-01-11T06:20:15.323Z,8.67
2019-01-11T06:22:44.596Z,9.00
2019-01-11T06:25:13.869Z,9.30
2019-01-11T06:27:43.137Z,9.47
2019-01-11T06:30:14.043Z,10.83
2019-01-11T06:32:43.384Z,16.97
2019-01-11T06:35:13.945Z,18.73
2019-01-11T06:37:43.220Z,17.37
2019-01-11T06:40:12.659Z,19.00
2019-01-11T06:42:42.129Z,26.53
2019-01-11T06:45:12.123Z,65.40
2019-01-11T06:47:41.405Z,116.40
2019-01-11T06:50:15.643Z,211.20
2019-01-11T06:52:45.017Z,236.87
2019-01-11T06:55:14.686Z,266.67
2019-01-11T06:57:44.198Z,255.43
2019-01-11T07:00:16.560Z,122.37
2019-01-11T07:02:45.825Z,58.87
2019-01-11T07:05:15.206Z,69.13
2019-01-11T07:07:44.476Z,49.10
2019-01-11T07:10:16.496Z,28.83
2019-01-11T07:12:45.997Z,20.70
2019-01-11T07:15:16.421Z,22.00
2019-01-11T07:17:45.804Z,33.23
2019-01-11T07:20:15.635Z,56.57
2019-01-11T07:22:45.875Z,42.60
2019-01-11T07:25:15.685Z,42.53
2019-01-11T07:27:55.659Z,27.27
2019-01-11T07:30:26.814Z,24.37
2019-01-11T07:32:57.306Z,24.60
2019-01-11T07:35:28.229Z,25.13
2019-01-11T07:37:57.497Z,24.13
2019-01-11T07:40:26.793Z,22.50
2019-01-11T07:42:56.344Z,19.53
2019-01-11T07:45:25.690Z,21.40
2019-01-11T07:47:54.960Z,18.37
2019-01-11T07:50:24.261Z,17.97
2019-01-11T07:52:53.533Z,15.03
2019-01-11T07:55:22.820Z,16.87
2019-01-11T07:57:52.092Z,15.10
2019-01-11T08:00:21.381Z,15.00
2019-01-11T08:02:50.647Z,15.87
2019-01-11T08:05:19.931Z,16.83
2019-01-11T08:07:49.206Z,14.60
2019-01-11T08:10:18.493Z,16.27
2019-01-11T08:12:47.769Z,16.17
2019-01-11T08:15:18.266Z,14.67
2019-01-11T08:17:47.542Z,16.47
2019-01-11T08:20:17.896Z,23.23
2019-01-11T08:22:47.169Z,23.47
2019-01-11T08:25:17.361Z,51.97
2019-01-11T08:27:46.644Z,75.17
2019-01-11T08:30:16.893Z,58.17
2019-01-11T08:32:47.198Z,73.73
2019-01-11T08:35:16.606Z,53.93
2019-01-11T08:37:46.769Z,42.90
2019-01-11T08:40:16.113Z,49.77
2019-01-11T08:42:45.405Z,44.27
2019-01-11T08:45:15.216Z,43.50
2019-01-11T08:47:44.494Z,37.43
2019-01-11T08:50:19.034Z,35.77
2019-01-11T08:52:48.625Z,29.53
2019-01-11T08:55:18.475Z,29.60
2019-01-11T08:57:47.765Z,29.83
2019-01-11T09:00:17.578Z,35.03
2019-01-11T09:02:46.865Z,26.47
2019-01-11T09:05:16.141Z,26.23
2019-01-11T09:07:47.219Z,26.37
2019-01-11T09:10:22.850Z,27.40
2019-01-11T09:12:48.703Z,24.23
2019-01-11T09:15:17.981Z,24.33
2019-01-11T09:18:04.958Z,19.23
2019-01-11T09:20:34.221Z,18.60
2019-01-11T09:23:03.503Z,18.50
2019-01-11T09:25:33.841Z,18.47
2019-01-11T09:28:03.128Z,16.70
2019-01-11T09:30:32.406Z,16.97
2019-01-11T09:33:04.540Z,19.37
2019-01-11T09:35:33.813Z,22.47
2019-01-11T09:38:03.120Z,24.33
2019-01-11T09:40:32.444Z,23.20
2019-01-11T09:43:01.729Z,24.33
2019-01-11T09:45:31.162Z,23.10
2019-01-11T09:48:00.474Z,21.97
2019-01-11T09:50:29.745Z,23.67
2019-01-11T09:52:59.012Z,19.07
2019-01-11T09:55:28.291Z,18.63
2019-01-11T09:57:57.647Z,19.20
2019-01-11T10:00:27.187Z,23.53
2019-01-11T10:03:01.027Z,17.73
2019-01-11T10:05:30.589Z,16.80
2019-01-11T10:07:59.873Z,16.97
2019-01-11T10:10:30.208Z,14.73
2019-01-11T10:13:00.065Z,15.77
2019-01-11T10:15:29.337Z,14.10
2019-01-11T10:17:58.697Z,29.23
2019-01-11T10:20:28.039Z,29.20
2019-01-11T10:22:57.746Z,26.73
2019-01-11T10:25:27.036Z,24.13
2019-01-11T10:27:56.310Z,19.60
2019-01-11T10:30:25.600Z,16.73
2019-01-11T10:32:54.880Z,15.70
2019-01-11T10:35:24.229Z,14.97
2019-01-11T10:37:53.493Z,14.67
2019-01-11T10:40:22.808Z,15.00
2019-01-11T10:42:52.931Z,22.70
2019-01-11T10:45:22.452Z,30.53
2019-01-11T10:47:52.691Z,29.83
2019-01-11T10:50:21.980Z,28.27
2019-01-11T10:52:51.249Z,26.70
2019-01-11T10:55:20.972Z,26.40
2019-01-11T10:57:50.519Z,18.20
2019-01-11T11:00:22.045Z,15.80
2019-01-11T11:02:51.954Z,15.93
2019-01-11T11:05:22.333Z,16.10
2019-01-11T11:07:51.845Z,14.83
2019-01-11T11:10:21.264Z,15.20
2019-01-11T11:12:50.534Z,17.47
2019-01-11T11:15:20.458Z,33.53
2019-01-11T11:17:49.742Z,37.63
2019-01-11T11:20:20.433Z,36.30
2019-01-11T11:22:49.768Z,30.97
2019-01-11T11:25:20.381Z,27.00
2019-01-11T11:27:49.792Z,26.57
2019-01-11T11:30:19.518Z,19.00
2019-01-11T11:32:58.922Z,20.10
2019-01-11T11:35:28.417Z,19.97
2019-01-11T11:37:57.952Z,18.67
2019-01-11T11:40:27.307Z,19.10
2019-01-11T11:42:56.596Z,19.57
2019-01-11T11:45:27.419Z,39.00
2019-01-11T11:47:56.759Z,32.80
2019-01-11T11:50:26.145Z,50.13
2019-01-11T11:52:55.895Z,78.03
2019-01-11T11:55:25.250Z,109.57
2019-01-11T11:57:54.521Z,58.27
2019-01-11T12:00:25.538Z,45.50
2019-01-11T12:02:54.805Z,40.77
2019-01-11T12:05:24.354Z,45.67
2019-01-11T12:07:53.748Z,38.00
2019-01-11T12:10:23.188Z,28.80
2019-01-11T12:12:52.526Z,20.87
2019-01-11T12:15:22.010Z,19.53
2019-01-11T12:17:51.385Z,20.60
2019-01-11T12:20:23.797Z,20.50
2019-01-11T12:22:53.377Z,20.53
2019-01-11T12:25:23.632Z,20.70
2019-01-11T12:27:53.889Z,20.03
2019-01-11T12:30:23.154Z,19.80
2019-01-11T12:32:52.687Z,25.20
2019-01-11T12:35:21.949Z,23.73
2019-01-11T12:37:51.507Z,20.80
2019-01-11T12:40:20.778Z,20.13
2019-01-11T12:42:50.051Z,18.27
2019-01-11T12:45:19.594Z,19.40
2019-01-11T12:47:48.881Z,19.60
2019-01-11T12:50:23.125Z,19.40
2019-01-11T12:52:52.415Z,19.50
2019-01-11T12:55:21.684Z,18.23
2019-01-11T12:57:51.041Z,19.03
2019-01-11T13:00:20.319Z,18.60
2019-01-11T13:02:49.592Z,18.00
2019-01-11T13:05:19.588Z,18.37
2019-01-11T13:07:48.869Z,18.27
2019-01-11T13:10:19.387Z,17.77
2019-01-11T13:12:48.660Z,18.60
2019-01-11T13:15:20.045Z,19.77
2019-01-11T13:17:49.401Z,19.53
2019-01-11T13:20:19.928Z,20.10
2019-01-11T13:22:49.480Z,18.87
2019-01-11T13:25:18.740Z,19.50
2019-01-11T13:27:48.015Z,19.53
2019-01-11T13:30:18.774Z,20.13
2019-01-11T13:32:48.361Z,18.10
2019-01-11T13:35:17.650Z,18.10
2019-01-11T13:37:47.036Z,18.03
2019-01-11T13:40:19.075Z,17.10
2019-01-11T13:42:49.415Z,16.87
2019-01-11T13:45:18.710Z,16.77
2019-01-11T13:47:48.304Z,17.17
2019-01-11T13:50:32.046Z,16.87
2019-01-11T13:53:01.352Z,17.07
2019-01-11T13:55:30.693Z,16.10
2019-01-11T13:58:00.001Z,17.77
2019-01-11T14:00:35.208Z,16.07
2019-01-11T14:03:05.036Z,18.10
2019-01-11T14:05:34.396Z,17.57
2019-01-11T14:08:07.226Z,17.27
2019-01-11T14:10:36.491Z,16.13
2019-01-11T14:13:06.037Z,16.97
2019-01-11T14:15:35.319Z,16.50
2019-01-11T14:18:04.846Z,16.73
2019-01-11T14:20:34.116Z,15.73
2019-01-11T14:23:03.390Z,16.53
2019-01-11T14:25:32.679Z,16.77
2019-01-11T14:28:02.040Z,17.27
2019-01-11T14:30:31.678Z,15.57
2019-01-11T14:33:00.948Z,16.57
2019-01-11T14:35:31.197Z,17.50
2019-01-11T14:38:01.001Z,20.67
2019-01-11T14:40:31.294Z,36.07
2019-01-11T14:43:00.562Z,40.27
2019-01-11T14:45:29.877Z,62.10
2019-01-11T14:47:59.307Z,69.63
2019-01-11T14:50:28.845Z,39.50
2019-01-11T14:52:58.301Z,30.60
2019-01-11T14:55:27.599Z,30.43
2019-01-11T14:57:56.879Z,34.20
2019-01-11T15:00:26.229Z,36.90
2019-01-11T15:02:55.586Z,25.93
2019-01-11T15:05:24.896Z,20.90
2019-01-11T15:07:54.234Z,27.83
2019-01-11T15:10:23.556Z,40.73
2019-01-11T15:12:52.887Z,33.13
2019-01-11T15:15:22.165Z,43.53
2019-01-11T15:17:51.441Z,24.07
2019-01-11T15:20:20.794Z,32.10
2019-01-11T15:22:50.061Z,21.70
2019-01-11T15:25:19.349Z,21.13
2019-01-11T15:27:48.628Z,21.00
2019-01-11T15:30:18.959Z,21.00
2019-01-11T15:32:48.361Z,18.67
2019-01-11T15:35:18.681Z,21.53
2019-01-11T15:37:47.945Z,20.93
2019-01-11T15:40:20.318Z,20.93
2019-01-11T15:42:49.759Z,19.17
2019-01-11T15:45:19.236Z,21.77
2019-01-11T15:47:48.516Z,18.90
2019-01-11T15:50:50.761Z,17.63
2019-01-11T15:53:20.037Z,18.48
2019-01-11T15:55:49.681Z,24.10
2019-01-11T15:58:18.948Z,23.07
2019-01-11T16:00:48.766Z,22.47
2019-01-11T16:03:18.297Z,21.97
2019-01-11T16:05:47.585Z,18.37
2019-01-11T16:08:16.917Z,20.97
2019-01-11T16:11:05.682Z,23.97
2019-01-11T16:13:37.577Z,19.83
2019-01-11T16:16:09.693Z,18.67
2019-01-11T16:18:38.968Z,16.90
2019-01-11T16:21:08.593Z,18.00
2019-01-11T16:23:37.843Z,19.80
2019-01-11T16:26:07.154Z,23.40
2019-01-11T16:28:36.523Z,21.93
2019-01-11T16:31:06.000Z,20.43
2019-01-11T16:33:35.279Z,19.20
2019-01-11T16:36:05.524Z,19.87
2019-01-11T16:38:34.808Z,18.57
2019-01-11T16:41:04.174Z,18.97
2019-01-11T16:43:33.449Z,19.03
2019-01-11T16:46:03.652Z,18.60
2019-01-11T16:48:33.853Z,17.83
2019-01-11T16:51:03.278Z,18.73
2019-01-11T16:53:32.561Z,40.43
2019-01-11T16:56:01.835Z,25.47
2019-01-11T16:58:31.279Z,24.43
2019-01-11T17:01:00.877Z,23.90
2019-01-11T17:03:30.149Z,22.33
2019-01-11T17:05:59.533Z,21.90
2019-01-11T17:08:29.095Z,21.17
2019-01-11T17:10:58.411Z,24.40
2019-01-11T17:13:30.722Z,27.97
2019-01-11T17:16:00.222Z,62.80
2019-01-11T17:18:30.598Z,78.70
2019-01-11T17:21:00.254Z,45.83
2019-01-11T17:23:29.540Z,48.80
2019-01-11T17:25:58.977Z,37.17
2019-01-11T17:28:28.302Z,43.27
2019-01-11T17:30:57.640Z,57.00
2019-01-11T17:33:27.189Z,74.70
2019-01-11T17:35:56.760Z,42.60
2019-01-11T17:38:26.173Z,48.87
2019-01-11T17:40:55.465Z,53.20
2019-01-11T17:43:24.820Z,55.07
2019-01-11T17:45:54.102Z,50.57
2019-01-11T17:48:23.401Z,40.57
2019-01-11T17:50:52.679Z,67.83
2019-01-11T17:53:22.069Z,43.10
2019-01-11T17:55:51.357Z,27.47
2019-01-11T17:58:20.754Z,43.50
2019-01-11T18:00:50.047Z,42.00
2019-01-11T18:03:19.552Z,37.90
2019-01-11T18:05:48.855Z,37.73
2019-01-11T18:08:18.146Z,34.70
2019-01-11T18:10:47.675Z,40.13
2019-01-11T18:13:18.332Z,29.23
2019-01-11T18:15:47.782Z,30.10
2019-01-11T18:18:17.037Z,38.23
2019-01-11T18:20:46.330Z,36.87
2019-01-11T18:23:15.590Z,26.43
2019-01-11T18:25:46.482Z,28.77
2019-01-11T18:28:15.758Z,30.60
2019-01-11T18:30:45.034Z,28.27
2019-01-11T18:33:14.309Z,48.47
2019-01-11T18:35:43.844Z,38.87
2019-01-11T18:38:13.190Z,26.80
2019-01-11T18:40:42.473Z,29.93
2019-01-11T18:43:11.745Z,60.17
2019-01-11T18:45:41.035Z,45.17
2019-01-11T18:48:10.309Z,44.20
2019-01-11T18:50:39.626Z,42.47
2019-01-11T18:53:13.693Z,26.83
2019-01-11T18:55:39.907Z,28.97
2019-01-11T18:58:09.178Z,28.80
2019-01-11T19:00:38.458Z,29.20
2019-01-11T19:03:07.732Z,20.53
2019-01-11T19:05:37.029Z,22.07
2019-01-11T19:08:06.294Z,25.87
2019-01-11T19:10:35.678Z,19.40
2019-01-11T19:13:04.933Z,39.03
2019-01-11T19:15:34.213Z,27.87
2019-01-11T19:18:03.486Z,20.13
2019-01-11T19:20:32.769Z,19.90
2019-01-11T19:23:02.281Z,16.67
2019-01-11T19:25:31.591Z,16.50
2019-01-11T19:28:00.934Z,19.60
2019-01-11T19:30:30.647Z,15.97
2019-01-11T19:32:59.938Z,27.07
2019-01-11T19:35:29.326Z,19.80
2019-01-11T19:37:58.886Z,23.20
2019-01-11T19:40:28.198Z,29.00
2019-01-11T19:42:57.522Z,21.03
2019-01-11T19:45:27.061Z,20.20
2019-01-11T19:47:56.351Z,19.20
2019-01-11T19:50:25.698Z,20.03
2019-01-11T19:52:55.378Z,19.63
2019-01-11T19:55:24.664Z,22.47
2019-01-11T19:57:53.940Z,15.83
2019-01-11T20:00:25.153Z,16.67
2019-01-11T20:02:54.910Z,25.70
2019-01-11T20:05:24.823Z,23.50
2019-01-11T20:07:54.379Z,27.20
2019-01-11T20:10:29.433Z,32.03
2019-01-11T20:12:58.823Z,20.27
2019-01-11T20:15:28.085Z,38.53
2019-01-11T20:17:57.699Z,29.53
2019-01-11T20:20:27.218Z,28.47
2019-01-11T20:23:02.241Z,36.23
2019-01-11T20:25:27.541Z,30.90
2019-01-11T20:27:56.847Z,36.10
2019-01-11T20:30:26.648Z,26.50
2019-01-11T20:32:56.049Z,46.70
2019-01-11T20:35:25.316Z,37.00
2019-01-11T20:37:54.669Z,33.57
2019-01-11T20:40:24.013Z,25.90
2019-01-11T20:42:53.364Z,31.80
2019-01-11T20:45:22.700Z,19.37
2019-01-11T20:47:52.125Z,21.27
2019-01-11T20:50:22.229Z,20.20
2019-01-11T20:52:51.607Z,18.97
2019-01-11T20:55:20.950Z,23.00
2019-01-11T20:57:50.294Z,26.07
2019-01-11T21:00:22.561Z,25.43
2019-01-11T21:02:52.017Z,20.30
2019-01-11T21:05:21.729Z,16.37
2019-01-11T21:07:52.055Z,26.97
2019-01-11T21:10:21.673Z,22.50
2019-01-11T21:12:50.962Z,22.53
2019-01-11T21:15:22.349Z,23.73
2019-01-11T21:17:51.716Z,27.17
2019-01-11T21:20:21.478Z,25.03
2019-01-11T21:22:50.752Z,24.97
2019-01-11T21:25:20.674Z,19.90
2019-01-11T21:27:51.089Z,17.57
2019-01-11T21:30:25.410Z,20.77
2019-01-11T21:32:54.841Z,21.50
2019-01-11T21:35:24.553Z,24.83
2019-01-11T21:37:53.906Z,21.20
2019-01-11T21:40:23.206Z,19.07
2019-01-11T21:42:52.797Z,24.80
2019-01-11T21:45:22.152Z,17.10
2019-01-11T21:47:51.448Z,22.73
2019-01-11T21:50:22.542Z,16.93
2019-01-11T21:52:52.660Z,19.10
2019-01-11T21:55:22.904Z,17.33
2019-01-11T21:57:52.425Z,19.37
2019-01-11T22:00:28.685Z,15.57
2019-01-11T22:02:58.144Z,17.37
2019-01-11T22:05:27.551Z,20.07
2019-01-11T22:07:56.854Z,14.50
2019-01-11T22:10:26.197Z,16.77
2019-01-11T22:12:55.489Z,15.73
2019-01-11T22:15:24.833Z,15.83
2019-01-11T22:17:54.110Z,14.03
2019-01-11T22:20:24.469Z,14.17
2019-01-11T22:22:53.838Z,13.90
2019-01-11T22:25:23.200Z,13.10
2019-01-11T22:27:52.558Z,13.53
2019-01-11T22:30:29.893Z,13.10
2019-01-11T22:32:54.388Z,13.03
2019-01-11T22:35:23.671Z,11.67
2019-01-11T22:37:52.938Z,13.40
2019-01-11T22:40:23.807Z,12.63
2019-01-11T22:42:55.342Z,13.17
2019-01-11T22:45:24.766Z,12.97
2019-01-11T22:47:54.054Z,12.80
2019-01-11T22:50:23.337Z,12.97
2019-01-11T22:52:52.613Z,12.13
2019-01-11T22:55:21.891Z,12.33
2019-01-11T22:57:51.154Z,12.43
2019-01-11T23:00:44.972Z,13.20
2019-01-11T23:03:20.549Z,12.57
2019-01-11T23:05:52.716Z,13.63
2019-01-11T23:08:22.027Z,12.87
2019-01-11T23:11:20.105Z,11.27
2019-01-11T23:13:49.379Z,12.23
2019-01-11T23:16:21.738Z,13.53
2019-01-11T23:18:52.754Z,12.77
2019-01-11T23:21:22.024Z,12.97
2019-01-11T23:23:51.606Z,13.13
2019-01-11T23:26:20.887Z,13.10
2019-01-11T23:28:50.161Z,13.03
2019-01-11T23:31:19.431Z,12.03
2019-01-11T23:33:48.709Z,12.87
2019-01-11T23:36:18.006Z,12.90
2019-01-11T23:38:47.593Z,12.60
2019-01-11T23:41:16.882Z,14.30
2019-01-11T23:43:46.148Z,13.33
2019-01-11T23:46:15.423Z,13.70
2019-01-11T23:48:45.001Z,13.70
2019-01-11T23:51:14.533Z,12.10
2019-01-11T23:53:43.793Z,13.23
2019-01-11T23:56:13.072Z,12.37
2019-01-11T23:58:42.341Z,12.33
